Time;durP1;ratioP1;P1;durP2;ratioP2;P2;SDS_P1;SDS_P2;PMS_P1;PMS_P2;Temp;Humidity;BMP_temperature;BMP_pressure;BME280_temperature;BME280_humidity;BME280_pressure;Samples;Min_cycle;Max_cycle;Signal;HPM_P1;HPM_P2
2023/10/24 00:01:17;;;;;;;;;;;;;;;;;;5148544;27;20371;-43
2023/10/24 00:03:43;;;;;;;;;;;;;;;;;;5148439;27;19938;-45
2023/10/24 00:06:08;;;;;;;;;;;;;;;;;;5147950;27;20034;-40
2023/10/24 00:08:33;;;;;;;;;;;;;;;;;;5138988;27;19950;-43
2023/10/24 00:10:59;;;;;;;;;;;;;;;;;;5127362;28;19923;-41
2023/10/24 00:13:25;;;;;;;;;;;;;;;;;;5143613;27;19926;-43
2023/10/24 00:15:50;;;;;;;;;;;;;;;;;;5148768;27;19961;-43
2023/10/24 00:18:16;;;;;;;;;;;;;;;;;;5153085;27;20048;-41
2023/10/24 00:20:41;;;;;;;;;;;;;;;;;;5127814;28;20402;-42
2023/10/24 00:23:07;;;;;;;;;;;;;;;;;;5140781;27;19962;-43
2023/10/24 00:25:33;;;;;;;;;;;;;;;;;;5148947;27;20248;-43
2023/10/24 00:27:59;;;;;;;;;;;;;;;;;;5142603;27;19928;-44
2023/10/24 00:30:24;;;;;;;;;;;;;;;;;;5127169;28;20014;-45
2023/10/24 00:32:50;;;;;;;;;;;;;;;;;;5142977;27;19960;-43
2023/10/24 00:35:15;;;;;;;;;;;;;;;;;;5147992;27;19930;-42
2023/10/24 00:37:41;;;;;;;;;;;;;;;;;;5146495;27;19962;-45
2023/10/24 00:40:06;;;;;;;;;;;;;;;;;;5147105;27;19927;-42
2023/10/24 00:42:32;;;;;;;;;;;;;;;;;;5148219;27;20421;-42
2023/10/24 00:44:57;;;;;;;;;;;;;;;;;;5147760;27;19934;-41
2023/10/24 00:47:22;;;;;;;;;;;;;;;;;;5147515;27;19927;-42
2023/10/24 00:49:48;;;;;;;;;;;;;;;;;;5144574;27;19970;-41
2023/10/24 00:52:13;;;;;;;;;;;;;;;;;;5147333;27;19923;-41
2023/10/24 00:54:39;;;;;;;;;;;;;;;;;;5148108;27;19923;-42
2023/10/24 00:57:06;;;;;;;;;;;;;;;;;;5146807;27;20424;-41
2023/10/24 00:59:31;;;;;;;;;;;;;;;;;;5146426;27;19962;-44
2023/10/24 01:01:58;;;;;;;;;;;;;;;;;;5146771;27;20005;-41
2023/10/24 01:04:23;;;;;;;;;;;;;;;;;;5148079;27;19927;-42
2023/10/24 01:06:49;;;;;;;;;;;;;;;;;;5146328;27;20021;-41
2023/10/24 01:09:14;;;;;;;;;;;;;;;;;;5131536;27;19981;-43
2023/10/24 01:11:40;;;;;;;;;;;;;;;;;;5127708;27;20127;-43
2023/10/24 01:14:05;;;;;;;;;;;;;;;;;;5146509;27;19923;-43
2023/10/24 01:16:31;;;;;;;;;;;;;;;;;;5163611;27;19929;-42
2023/10/24 01:18:56;;;;;;;;;;;;;;;;;;5146369;27;19923;-41
2023/10/24 01:21:22;;;;;;;;;;;;;;;;;;5147435;27;19944;-43
2023/10/24 01:23:47;;;;;;;;;;;;;;;;;;5147036;27;19962;-42
2023/10/24 01:26:13;;;;;;;;;;;;;;;;;;5146415;27;20276;-44
2023/10/24 01:28:38;;;;;;;;;;;;;;;;;;5146732;27;20009;-41
2023/10/24 01:31:04;;;;;;;;;;;;;;;;;;5147347;27;19923;-42
2023/10/24 01:33:29;;;;;;;;;;;;;;;;;;5147282;27;20013;-43
2023/10/24 01:35:55;;;;;;;;;;;;;;;;;;5146999;27;20022;-42
2023/10/24 01:38:20;;;;;;;;;;;;;;;;;;5145660;27;19930;-41
2023/10/24 01:40:45;;;;;;;;;;;;;;;;;;5146992;27;19923;-41
2023/10/24 01:43:11;;;;;;;;;;;;;;;;;;5147024;27;19923;-43
2023/10/24 01:45:36;;;;;;;;;;;;;;;;;;5147202;27;19929;-43
2023/10/24 01:48:02;;;;;;;;;;;;;;;;;;5146216;27;20409;-42
2023/10/24 01:50:27;;;;;;;;;;;;;;;;;;5146117;27;19930;-44
2023/10/24 01:52:53;;;;;;;;;;;;;;;;;;5145596;27;19931;-41
2023/10/24 01:55:18;;;;;;;;;;;;;;;;;;5146722;27;19927;-44
2023/10/24 01:57:44;;;;;;;;;;;;;;;;;;5144139;27;19966;-43
2023/10/24 02:00:09;;;;;;;;;;;;;;;;;;5128948;27;20005;-43
2023/10/24 02:02:35;;;;;;;;;;;;;;;;;;5146691;27;19958;-44
2023/10/24 02:05:00;;;;;;;;;;;;;;;;;;5146674;27;20014;-44
2023/10/24 02:07:27;;;;;;;;;;;;;;;;;;5145367;27;20021;-42
2023/10/24 02:09:52;;;;;;;;;;;;;;;;;;5128924;27;19923;-41
2023/10/24 02:12:18;;;;;;;;;;;;;;;;;;5131487;27;19968;-43
2023/10/24 02:14:43;;;;;;;;;;;;;;;;;;5149790;27;20026;-43
2023/10/24 02:17:09;;;;;;;;;;;;;;;;;;5158112;27;19989;-44
2023/10/24 02:19:34;;;;;;;;;;;;;;;;;;5135920;27;20034;-41
2023/10/24 02:22:00;;;;;;;;;;;;;;;;;;5129656;28;20018;-43
2023/10/24 02:24:25;;;;;;;;;;;;;;;;;;5149155;27;20365;-42
2023/10/24 02:26:50;;;;;;;;;;;;;;;;;;5149543;27;19923;-43
2023/10/24 02:29:16;;;;;;;;;;;;;;;;;;5148515;27;19923;-42
2023/10/24 02:31:41;;;;;;;;;;;;;;;;;;5149126;27;20284;-42
2023/10/24 02:34:07;;;;;;;;;;;;;;;;;;5149607;27;19970;-44
2023/10/24 02:36:32;;;;;;;;;;;;;;;;;;5148510;27;20010;-44
2023/10/24 02:38:58;;;;;;;;;;;;;;;;;;5141955;27;20033;-42
2023/10/24 02:41:23;;;;;;;;;;;;;;;;;;5149569;27;19991;-42
2023/10/24 02:43:49;;;;;;;;;;;;;;;;;;5149486;27;20303;-42
2023/10/24 02:46:14;;;;;;;;;;;;;;;;;;5149862;27;20009;-45
2023/10/24 02:48:40;;;;;;;;;;;;;;;;;;5149612;27;20529;-41
2023/10/24 02:51:05;;;;;;;;;;;;;;;;;;5148368;27;19923;-44
2023/10/24 02:53:31;;;;;;;;;;;;;;;;;;5149728;27;20018;-45
2023/10/24 02:55:56;;;;;;;;;;;;;;;;;;5149432;27;19923;-46
2023/10/24 02:58:21;;;;;;;;;;;;;;;;;;5142754;27;20038;-41
2023/10/24 03:00:47;;;;;;;;;;;;;;;;;;5128660;28;20164;-45
2023/10/24 03:03:12;;;;;;;;;;;;;;;;;;5141735;27;19971;-43
2023/10/24 03:05:38;;;;;;;;;;;;;;;;;;5149698;27;20383;-41
2023/10/24 03:08:03;;;;;;;;;;;;;;;;;;5144658;27;19923;-44
2023/10/24 03:10:29;;;;;;;;;;;;;;;;;;5128368;28;20318;-42
2023/10/24 03:12:54;;;;;;;;;;;;;;;;;;5140373;27;19930;-42
2023/10/24 03:15:20;;;;;;;;;;;;;;;;;;5158787;27;20573;-43
2023/10/24 03:17:45;;;;;;;;;;;;;;;;;;5156313;27;19935;-43
2023/10/24 03:20:11;;;;;;;;;;;;;;;;;;5146774;27;19927;-42
2023/10/24 03:22:36;;;;;;;;;;;;;;;;;;5148815;27;20319;-42
2023/10/24 03:25:02;;;;;;;;;;;;;;;;;;5148928;27;20022;-41
2023/10/24 03:27:27;;;;;;;;;;;;;;;;;;5148769;27;19962;-43
2023/10/24 03:29:53;;;;;;;;;;;;;;;;;;5147965;27;19927;-44
2023/10/24 03:32:18;;;;;;;;;;;;;;;;;;5149299;27;19923;-42
2023/10/24 03:34:43;;;;;;;;;;;;;;;;;;5148819;27;19958;-41
2023/10/24 03:37:09;;;;;;;;;;;;;;;;;;5147918;27;20031;-44
2023/10/24 03:39:35;;;;;;;;;;;;;;;;;;5131358;27;19974;-43
2023/10/24 03:42:00;;;;;;;;;;;;;;;;;;5142966;27;20427;-42
2023/10/24 03:44:26;;;;;;;;;;;;;;;;;;5149241;27;20329;-43
2023/10/24 03:46:51;;;;;;;;;;;;;;;;;;5149015;27;20021;-41
2023/10/24 03:49:16;;;;;;;;;;;;;;;;;;5148512;27;20246;-43
2023/10/24 03:51:42;;;;;;;;;;;;;;;;;;5148065;27;19934;-44
2023/10/24 03:54:09;;;;;;;;;;;;;;;;;;5147175;27;20236;-44
2023/10/24 03:56:35;;;;;;;;;;;;;;;;;;5148130;27;20434;-44
2023/10/24 03:59:00;;;;;;;;;;;;;;;;;;5135626;27;19950;-42
2023/10/24 04:01:26;;;;;;;;;;;;;;;;;;5127670;28;20375;-42
2023/10/24 04:03:52;;;;;;;;;;;;;;;;;;5138722;27;20327;-45
2023/10/24 04:06:17;;;;;;;;;;;;;;;;;;5148563;27;19923;-41
2023/10/24 04:08:43;;;;;;;;;;;;;;;;;;5138299;27;19971;-41
2023/10/24 04:11:08;;;;;;;;;;;;;;;;;;5127210;28;19927;-42
2023/10/24 04:13:34;;;;;;;;;;;;;;;;;;5137393;27;20017;-42
2023/10/24 04:15:59;;;;;;;;;;;;;;;;;;5162840;27;20484;-44
2023/10/24 04:18:24;;;;;;;;;;;;;;;;;;5150396;27;19923;-45
2023/10/24 04:20:50;;;;;;;;;;;;;;;;;;5148397;27;20389;-42
2023/10/24 04:23:16;;;;;;;;;;;;;;;;;;5148063;27;20015;-42
2023/10/24 04:25:41;;;;;;;;;;;;;;;;;;5147968;27;19948;-44
2023/10/24 04:28:06;;;;;;;;;;;;;;;;;;5146773;27;19968;-42
2023/10/24 04:30:32;;;;;;;;;;;;;;;;;;5147551;27;19973;-45
2023/10/24 04:32:57;;;;;;;;;;;;;;;;;;5147834;27;20015;-41
2023/10/24 04:35:23;;;;;;;;;;;;;;;;;;5148179;27;20427;-44
2023/10/24 04:37:48;;;;;;;;;;;;;;;;;;5145051;27;19950;-45
2023/10/24 04:40:14;;;;;;;;;;;;;;;;;;5146076;27;19930;-43
2023/10/24 04:42:39;;;;;;;;;;;;;;;;;;5146820;27;19970;-41
2023/10/24 04:45:05;;;;;;;;;;;;;;;;;;5147260;27;19927;-44
2023/10/24 04:47:30;;;;;;;;;;;;;;;;;;5147876;27;20006;-44
2023/10/24 04:49:56;;;;;;;;;;;;;;;;;;5146054;27;19980;-42
2023/10/24 04:52:21;;;;;;;;;;;;;;;;;;5147092;27;19923;-43
2023/10/24 04:54:47;;;;;;;;;;;;;;;;;;5146009;27;19975;-42
2023/10/24 04:57:12;;;;;;;;;;;;;;;;;;5145754;27;20169;-44
2023/10/24 04:59:38;;;;;;;;;;;;;;;;;;5129787;27;19963;-42
2023/10/24 05:02:04;;;;;;;;;;;;;;;;;;5134364;27;19931;-41
2023/10/24 05:04:30;;;;;;;;;;;;;;;;;;5144479;27;20234;-41
2023/10/24 05:06:55;;;;;;;;;;;;;;;;;;5145498;27;20010;-42
2023/10/24 05:09:21;;;;;;;;;;;;;;;;;;5131746;27;19924;-44
2023/10/24 05:12:04;;;;;;;;;;;;;;;;;;5120481;27;21731;-42
2023/10/24 05:14:30;;;;;;;;;;;;;;;;;;5147882;27;19970;-42
2023/10/24 05:16:55;;;;;;;;;;;;;;;;;;5151414;27;19970;-55
2023/10/24 05:19:21;;;;;;;;;;;;;;;;;;5146207;27;19929;-44
2023/10/24 05:21:46;;;;;;;;;;;;;;;;;;5138820;27;19927;-43
2023/10/24 05:24:12;;;;;;;;;;;;;;;;;;5146302;27;20398;-43
2023/10/24 05:26:38;;;;;;;;;;;;;;;;;;5144788;27;19931;-43
2023/10/24 05:29:03;;;;;;;;;;;;;;;;;;5145243;27;20071;-47
2023/10/24 05:31:29;;;;;;;;;;;;;;;;;;5143900;27;19923;-45
2023/10/24 05:33:54;;;;;;;;;;;;;;;;;;5145931;27;19929;-46
2023/10/24 05:36:19;;;;;;;;;;;;;;;;;;5138942;27;19938;-47
2023/10/24 05:38:45;;;;;;;;;;;;;;;;;;5130080;27;20494;-43
2023/10/24 05:41:11;;;;;;;;;;;;;;;;;;5130899;27;20365;-46
2023/10/24 05:43:38;;;;;;;;;;;;;;;;;;5140178;27;20452;-44
2023/10/24 05:46:05;;;;;;;;;;;;;;;;;;5129064;27;19931;-45
2023/10/24 05:48:30;;;;;;;;;;;;;;;;;;5140087;27;20041;-46
2023/10/24 05:50:56;;;;;;;;;;;;;;;;;;5134144;27;19991;-47
2023/10/24 05:53:21;;;;;;;;;;;;;;;;;;5131894;27;20375;-44
2023/10/24 05:55:47;;;;;;;;;;;;;;;;;;5128373;27;19927;-47
2023/10/24 05:58:12;;;;;;;;;;;;;;;;;;5120839;27;20358;-43
2023/10/24 06:00:38;;;;;;;;;;;;;;;;;;5121860;27;20022;-45
2023/10/24 06:03:03;;;;;;;;;;;;;;;;;;5115533;27;20089;-44
2023/10/24 06:05:29;;;;;;;;;;;;;;;;;;5124826;27;19934;-43
2023/10/24 06:07:54;;;;;;;;;;;;;;;;;;5125588;27;19938;-44
2023/10/24 06:10:20;;;;;;;;;;;;;;;;;;5133577;27;19934;-45
2023/10/24 06:12:45;;;;;;;;;;;;;;;;;;5134230;27;20022;-43
2023/10/24 06:15:11;;;;;;;;;;;;;;;;;;5134436;27;20640;-43
2023/10/24 06:17:36;;;;;;;;;;;;;;;;;;5121744;27;21132;-45
2023/10/24 06:20:02;;;;;;;;;;;;;;;;;;5117587;27;20551;-43
2023/10/24 06:22:28;;;;;;;;;;;;;;;;;;5125657;27;19938;-45
2023/10/24 06:24:55;;;;;;;;;;;;;;;;;;5123667;27;19924;-45
2023/10/24 06:27:20;;;;;;;;;;;;;;;;;;5134960;27;19929;-44
2023/10/24 06:29:46;;;;;;;;;;;;;;;;;;5134021;27;19931;-44
2023/10/24 06:32:11;;;;;;;;;;;;;;;;;;5136778;27;20492;-44
2023/10/24 06:34:36;;;;;;;;;;;;;;;;;;5132158;27;19927;-45
2023/10/24 06:37:03;;;;;;;;;;;;;;;;;;5137356;27;20021;-44
2023/10/24 06:39:29;;;;;;;;;;;;;;;;;;5140076;27;19927;-43
2023/10/24 06:41:55;;;;;;;;;;;;;;;;;;5136408;27;20587;-44
2023/10/24 06:44:21;;;;;;;;;;;;;;;;;;5124329;27;20022;-44
2023/10/24 06:46:46;;;;;;;;;;;;;;;;;;5125180;27;20082;-43
2023/10/24 06:49:12;;;;;;;;;;;;;;;;;;5118633;27;19935;-44
2023/10/24 06:51:37;;;;;;;;;;;;;;;;;;5119871;27;19924;-44
2023/10/24 06:54:03;;;;;;;;;;;;;;;;;;5116630;27;19930;-43
2023/10/24 06:56:28;;;;;;;;;;;;;;;;;;5121942;27;19979;-45
2023/10/24 06:58:54;;;;;;;;;;;;;;;;;;5126251;27;20379;-43
2023/10/24 07:01:19;;;;;;;;;;;;;;;;;;5113973;27;20652;-42
2023/10/24 07:03:45;;;;;;;;;;;;;;;;;;5115058;27;20395;-43
2023/10/24 07:06:10;;;;;;;;;;;;;;;;;;5108928;27;19931;-43
2023/10/24 07:08:36;;;;;;;;;;;;;;;;;;5101149;27;20234;-45
2023/10/24 07:11:02;;;;;;;;;;;;;;;;;;5108909;27;20381;-44
2023/10/24 07:13:29;;;;;;;;;;;;;;;;;;5112556;27;20262;-43
2023/10/24 07:15:54;;;;;;;;;;;;;;;;;;5109746;27;20010;-44
2023/10/24 07:18:20;;;;;;;;;;;;;;;;;;5101676;27;20615;-43
2023/10/24 07:20:45;;;;;;;;;;;;;;;;;;5100865;27;19927;-44
2023/10/24 07:23:10;;;;;;;;;;;;;;;;;;5105289;27;19927;-43
2023/10/24 07:25:36;;;;;;;;;;;;;;;;;;5108882;27;19938;-44
2023/10/24 07:28:03;;;;;;;;;;;;;;;;;;5101282;27;20313;-44
2023/10/24 07:30:29;;;;;;;;;;;;;;;;;;5107110;27;19966;-44
2023/10/24 07:32:54;;;;;;;;;;;;;;;;;;5108535;27;20341;-44
2023/10/24 07:35:20;;;;;;;;;;;;;;;;;;5111068;27;20382;-44
2023/10/24 07:37:45;;;;;;;;;;;;;;;;;;5112902;27;19931;-44
2023/10/24 07:40:11;;;;;;;;;;;;;;;;;;5113340;27;20712;-45
2023/10/24 07:42:36;;;;;;;;;;;;;;;;;;5116346;27;19931;-43
2023/10/24 07:45:02;;;;;;;;;;;;;;;;;;5111448;27;20178;-44
2023/10/24 07:47:27;;;;;;;;;;;;;;;;;;5110488;27;19993;-45
2023/10/24 07:49:54;;;;;;;;;;;;;;;;;;5110795;27;19931;-45
2023/10/24 07:52:19;;;;;;;;;;;;;;;;;;5105669;27;19923;-46
2023/10/24 07:54:45;;;;;;;;;;;;;;;;;;5105996;27;19986;-44
2023/10/24 07:57:12;;;;;;;;;;;;;;;;;;5102966;27;20039;-45
2023/10/24 07:59:37;;;;;;;;;;;;;;;;;;5114371;27;19965;-45
2023/10/24 08:02:03;;;;;;;;;;;;;;;;;;5111271;27;19927;-44
2023/10/24 08:04:28;;;;;;;;;;;;;;;;;;5111832;27;19931;-45
2023/10/24 08:06:54;;;;;;;;;;;;;;;;;;5112917;27;20602;-45
2023/10/24 08:09:19;;;;;;;;;;;;;;;;;;5110764;27;21462;-43
2023/10/24 08:11:45;;;;;;;;;;;;;;;;;;5114772;27;19938;-45
2023/10/24 08:14:13;;;;;;;;;;;;;;;;;;5124181;27;20014;-43
2023/10/24 08:16:38;;;;;;;;;;;;;;;;;;5125008;27;19927;-44
2023/10/24 08:19:04;;;;;;;;;;;;;;;;;;5122353;27;20351;-45
2023/10/24 08:21:29;;;;;;;;;;;;;;;;;;5122263;27;20379;-46
2023/10/24 08:23:56;;;;;;;;;;;;;;;;;;5125728;27;20011;-44
2023/10/24 08:26:21;;;;;;;;;;;;;;;;;;5122270;27;20398;-44
2023/10/24 08:28:47;;;;;;;;;;;;;;;;;;5127680;27;19968;-47
2023/10/24 08:31:12;;;;;;;;;;;;;;;;;;5122373;27;20164;-46
2023/10/24 08:33:38;;;;;;;;;;;;;;;;;;5104898;27;19934;-45
2023/10/24 08:36:03;;;;;;;;;;;;;;;;;;5100180;27;20341;-45
2023/10/24 08:38:29;;;;;;;;;;;;;;;;;;5097631;27;19942;-44
2023/10/24 08:40:54;;;;;;;;;;;;;;;;;;5100082;27;19934;-44
2023/10/24 08:43:21;;;;;;;;;;;;;;;;;;5102159;27;19975;-43
2023/10/24 08:45:46;;;;;;;;;;;;;;;;;;5114493;27;20046;-44
2023/10/24 08:48:12;;;;;;;;;;;;;;;;;;5111527;27;20030;-43
2023/10/24 08:50:38;;;;;;;;;;;;;;;;;;5110592;27;20138;-44
2023/10/24 08:53:04;;;;;;;;;;;;;;;;;;5110998;27;20492;-43
2023/10/24 08:55:29;;;;;;;;;;;;;;;;;;5115097;27;20636;-45
2023/10/24 08:57:55;;;;;;;;;;;;;;;;;;5114056;27;20093;-45
2023/10/24 09:00:21;;;;;;;;;;;;;;;;;;5112823;27;21035;-44
2023/10/24 09:02:46;;;;;;;;;;;;;;;;;;5114190;27;19957;-46
2023/10/24 09:05:12;;;;;;;;;;;;;;;;;;5111744;27;19935;-44
2023/10/24 09:07:37;;;;;;;;;;;;;;;;;;5114327;27;20839;-46
2023/10/24 09:10:03;;;;;;;;;;;;;;;;;;5115387;27;19956;-45
2023/10/24 09:12:28;;;;;;;;;;;;;;;;;;5121238;27;20332;-46
2023/10/24 09:14:54;;;;;;;;;;;;;;;;;;5111416;27;19930;-49
2023/10/24 09:17:20;;;;;;;;;;;;;;;;;;5110359;27;19931;-44
2023/10/24 09:19:45;;;;;;;;;;;;;;;;;;5112250;27;20022;-45
2023/10/24 09:22:11;;;;;;;;;;;;;;;;;;5117969;27;20806;-44
2023/10/24 09:24:36;;;;;;;;;;;;;;;;;;5118383;27;20026;-43
2023/10/24 09:27:02;;;;;;;;;;;;;;;;;;5113616;27;19927;-45
2023/10/24 09:29:27;;;;;;;;;;;;;;;;;;5109654;27;19927;-44
2023/10/24 09:31:53;;;;;;;;;;;;;;;;;;5106758;27;19931;-44
2023/10/24 09:34:18;;;;;;;;;;;;;;;;;;5107548;27;19938;-44
2023/10/24 09:36:44;;;;;;;;;;;;;;;;;;5099582;27;19975;-44
2023/10/24 09:39:10;;;;;;;;;;;;;;;;;;5096198;27;19927;-44
2023/10/24 09:41:35;;;;;;;;;;;;;;;;;;5107110;27;19923;-44
2023/10/24 09:44:01;;;;;;;;;;;;;;;;;;5114983;27;19927;-44
2023/10/24 09:46:26;;;;;;;;;;;;;;;;;;5124401;27;20427;-44
2023/10/24 09:48:52;;;;;;;;;;;;;;;;;;5119302;27;19933;-43
2023/10/24 09:51:18;;;;;;;;;;;;;;;;;;5120415;27;20518;-44
2023/10/24 09:53:43;;;;;;;;;;;;;;;;;;5121941;27;20498;-49
2023/10/24 09:56:08;;;;;;;;;;;;;;;;;;5104279;27;19935;-47
2023/10/24 09:58:38;;;;;;;;;;;;;;;;;;5100993;27;20598;-44
2023/10/24 10:01:03;;;;;;;;;;;;;;;;;;5102666;27;20135;-46
2023/10/24 10:03:29;;;;;;;;;;;;;;;;;;5097428;27;20208;-43
2023/10/24 10:05:54;;;;;;;;;;;;;;;;;;5119459;27;20714;-45
2023/10/24 10:08:20;;;;;;;;;;;;;;;;;;5113921;27;19927;-49
2023/10/24 10:10:46;;;;;;;;;;;;;;;;;;5116147;27;19992;-45
2023/10/24 10:13:12;;;;;;;;;;;;;;;;;;5116715;27;19938;-45
2023/10/24 10:15:38;;;;;;;;;;;;;;;;;;5117376;27;19923;-44
2023/10/24 10:18:03;;;;;;;;;;;;;;;;;;5120304;27;20380;-44
2023/10/24 10:20:30;;;;;;;;;;;;;;;;;;5109935;27;19939;-45
2023/10/24 10:22:55;;;;;;;;;;;;;;;;;;5118203;27;20131;-46
2023/10/24 10:25:20;;;;;;;;;;;;;;;;;;5114274;27;20552;-44
2023/10/24 10:27:46;;;;;;;;;;;;;;;;;;5114596;27;19934;-44
2023/10/24 10:30:11;;;;;;;;;;;;;;;;;;5121429;27;20314;-44
2023/10/24 10:32:50;;;;;;;;;;;;;;;;;;5122614;27;20224;-44
2023/10/24 10:35:29;;;;;;;;;;;;;;;;;;5126128;27;19976;-43
2023/10/24 10:37:54;;;;;;;;;;;;;;;;;;5119830;27;20593;-45
2023/10/24 10:40:23;;;;;;;;;;;;;;;;;;5117293;27;20812;-45
2023/10/24 10:42:48;;;;;;;;;;;;;;;;;;5116659;27;19927;-45
2023/10/24 10:45:14;;;;;;;;;;;;;;;;;;5127082;27;20011;-45
2023/10/24 10:47:39;;;;;;;;;;;;;;;;;;5129921;27;19927;-44
2023/10/24 10:50:05;;;;;;;;;;;;;;;;;;5130306;27;19948;-47
2023/10/24 10:52:30;;;;;;;;;;;;;;;;;;5125120;27;20391;-49
2023/10/24 10:54:56;;;;;;;;;;;;;;;;;;5137925;27;20037;-44
2023/10/24 10:57:21;;;;;;;;;;;;;;;;;;5143618;27;20415;-45
2023/10/24 10:59:46;;;;;;;;;;;;;;;;;;5142428;27;19931;-46
2023/10/24 11:02:12;;;;;;;;;;;;;;;;;;5139955;27;19974;-45
2023/10/24 11:04:38;;;;;;;;;;;;;;;;;;5143710;27;19967;-47
2023/10/24 11:07:04;;;;;;;;;;;;;;;;;;5140129;27;19939;-48
2023/10/24 11:09:30;;;;;;;;;;;;;;;;;;5139429;27;19986;-45
2023/10/24 11:11:55;;;;;;;;;;;;;;;;;;5133801;27;19933;-46
2023/10/24 11:14:20;;;;;;;;;;;;;;;;;;5135935;27;20390;-44
2023/10/24 11:16:46;;;;;;;;;;;;;;;;;;5137142;27;20901;-45
2023/10/24 11:19:12;;;;;;;;;;;;;;;;;;5139414;27;20301;-45
2023/10/24 11:21:37;;;;;;;;;;;;;;;;;;5140853;27;20017;-44
2023/10/24 11:24:02;;;;;;;;;;;;;;;;;;5058058;28;19928;-44
2023/10/24 11:26:28;;;;;;;;;;;;;;;;;;5063938;28;20107;-46
2023/10/24 11:28:54;;;;;;;;;;;;;;;;;;5059011;28;19928;-44
2023/10/24 11:31:19;;;;;;;;;;;;;;;;;;5054929;28;19932;-45
2023/10/24 11:33:45;;;;;;;;;;;;;;;;;;5048162;28;19924;-45
2023/10/24 11:36:10;;;;;;;;;;;;;;;;;;5058430;28;20428;-46
2023/10/24 11:38:36;;;;;;;;;;;;;;;;;;5056935;28;20027;-45
2023/10/24 11:41:01;;;;;;;;;;;;;;;;;;5058240;27;19971;-45
2023/10/24 11:43:29;;;;;;;;;;;;;;;;;;5134109;27;19953;-46
2023/10/24 11:45:55;;;;;;;;;;;;;;;;;;5142439;27;19923;-44
2023/10/24 11:48:20;;;;;;;;;;;;;;;;;;5140514;27;20018;-45
2023/10/24 11:50:46;;;;;;;;;;;;;;;;;;5133340;27;19924;-45
2023/10/24 11:53:11;;;;;;;;;;;;;;;;;;5131336;27;19927;-44
2023/10/24 11:55:37;;;;;;;;;;;;;;;;;;5129662;27;19929;-44
2023/10/24 11:58:02;;;;;;;;;;;;;;;;;;5137219;27;19931;-44
2023/10/24 12:00:30;;;;;;;;;;;;;;;;;;5145285;27;19931;-47
2023/10/24 12:02:56;;;;;;;;;;;;;;;;;;5137374;27;19966;-47
2023/10/24 12:05:21;;;;;;;;;;;;;;;;;;5141963;27;19963;-47
2023/10/24 12:07:46;;;;;;;;;;;;;;;;;;5133722;27;19931;-46
2023/10/24 12:10:12;;;;;;;;;;;;;;;;;;5137306;27;19933;-44
2023/10/24 12:12:37;;;;;;;;;;;;;;;;;;5139010;27;19943;-44
2023/10/24 12:15:03;;;;;;;;;;;;;;;;;;5140431;27;19927;-44
2023/10/24 12:17:28;;;;;;;;;;;;;;;;;;5139378;27;19931;-45
2023/10/24 12:19:56;;;;;;;;;;;;;;;;;;5139011;27;19939;-48
2023/10/24 12:22:21;;;;;;;;;;;;;;;;;;5144045;27;20505;-47
2023/10/24 12:24:47;;;;;;;;;;;;;;;;;;5144061;27;20017;-48
2023/10/24 12:27:12;;;;;;;;;;;;;;;;;;5140926;27;20379;-45
2023/10/24 12:29:38;;;;;;;;;;;;;;;;;;5142559;27;20354;-45
2023/10/24 12:32:03;;;;;;;;;;;;;;;;;;5138087;27;20304;-47
2023/10/24 12:34:29;;;;;;;;;;;;;;;;;;5141985;27;20010;-45
2023/10/24 12:36:57;;;;;;;;;;;;;;;;;;5140149;27;20026;-43
2023/10/24 12:39:22;;;;;;;;;;;;;;;;;;5136702;27;20113;-44
2023/10/24 12:41:48;;;;;;;;;;;;;;;;;;5130796;27;20395;-44
2023/10/24 12:44:13;;;;;;;;;;;;;;;;;;5143740;27;19928;-44
2023/10/24 12:46:39;;;;;;;;;;;;;;;;;;5139363;27;19934;-44
2023/10/24 12:49:05;;;;;;;;;;;;;;;;;;5145863;27;19927;-46
2023/10/24 12:51:30;;;;;;;;;;;;;;;;;;5139555;27;20026;-43
2023/10/24 12:53:56;;;;;;;;;;;;;;;;;;5144426;27;19927;-44
2023/10/24 12:56:21;;;;;;;;;;;;;;;;;;5137515;27;19935;-45
2023/10/24 12:58:49;;;;;;;;;;;;;;;;;;5137515;27;20037;-46
2023/10/24 13:01:16;;;;;;;;;;;;;;;;;;5144972;27;20459;-45
2023/10/24 13:03:42;;;;;;;;;;;;;;;;;;5130982;27;19927;-46
2023/10/24 13:06:07;;;;;;;;;;;;;;;;;;5135268;27;19931;-47
2023/10/24 13:08:33;;;;;;;;;;;;;;;;;;5138764;27;20419;-47
2023/10/24 13:10:58;;;;;;;;;;;;;;;;;;5144222;27;19927;-44
2023/10/24 13:13:24;;;;;;;;;;;;;;;;;;5144215;27;19923;-44
2023/10/24 13:15:49;;;;;;;;;;;;;;;;;;5140826;27;20031;-45
2023/10/24 13:18:15;;;;;;;;;;;;;;;;;;5144396;27;19930;-45
2023/10/24 13:20:40;;;;;;;;;;;;;;;;;;5140936;27;20527;-46
2023/10/24 13:23:05;;;;;;;;;;;;;;;;;;5148569;27;19931;-44
2023/10/24 13:25:31;;;;;;;;;;;;;;;;;;5142698;27;20418;-44
2023/10/24 13:27:56;;;;;;;;;;;;;;;;;;5138135;27;19923;-45
2023/10/24 13:30:22;;;;;;;;;;;;;;;;;;5140728;27;19974;-47
2023/10/24 13:33:05;;;;;;;;;;;;;;;;;;5130757;27;19927;-44
2023/10/24 13:35:30;;;;;;;;;;;;;;;;;;5143935;27;20017;-45
2023/10/24 13:37:58;;;;;;;;;;;;;;;;;;5138768;27;20367;-45
2023/10/24 13:40:24;;;;;;;;;;;;;;;;;;5129979;27;20068;-46
2023/10/24 13:42:49;;;;;;;;;;;;;;;;;;5144130;27;19966;-47
2023/10/24 13:45:15;;;;;;;;;;;;;;;;;;5140469;27;19930;-51
2023/10/24 13:47:40;;;;;;;;;;;;;;;;;;5131631;27;20546;-48
2023/10/24 13:50:06;;;;;;;;;;;;;;;;;;5121215;27;20304;-51
2023/10/24 13:52:33;;;;;;;;;;;;;;;;;;5125220;27;20364;-49
2023/10/24 13:54:59;;;;;;;;;;;;;;;;;;5125837;27;19931;-47
2023/10/24 13:57:24;;;;;;;;;;;;;;;;;;5130528;27;20057;-48
2023/10/24 13:59:50;;;;;;;;;;;;;;;;;;5123849;27;19934;-49
2023/10/24 14:02:15;;;;;;;;;;;;;;;;;;5128885;27;20742;-50
2023/10/24 14:04:41;;;;;;;;;;;;;;;;;;5129492;27;19927;-48
2023/10/24 14:07:08;;;;;;;;;;;;;;;;;;5132513;27;19931;-50
2023/10/24 14:09:34;;;;;;;;;;;;;;;;;;5129403;27;20081;-51
2023/10/24 14:11:59;;;;;;;;;;;;;;;;;;5132428;27;19927;-51
2023/10/24 14:14:26;;;;;;;;;;;;;;;;;;5131783;27;20394;-51
2023/10/24 14:16:52;;;;;;;;;;;;;;;;;;5129709;27;20496;-49
2023/10/24 14:19:17;;;;;;;;;;;;;;;;;;5130774;27;20443;-50
2023/10/24 14:21:43;;;;;;;;;;;;;;;;;;5129345;27;20411;-50
2023/10/24 14:24:08;;;;;;;;;;;;;;;;;;5131166;27;19931;-47
2023/10/24 14:26:34;;;;;;;;;;;;;;;;;;5131388;27;19927;-49
2023/10/24 14:28:59;;;;;;;;;;;;;;;;;;5130826;27;19927;-47
2023/10/24 14:31:25;;;;;;;;;;;;;;;;;;5128872;27;21648;-52
2023/10/24 14:33:50;;;;;;;;;;;;;;;;;;5131557;27;20031;-50
2023/10/24 14:36:16;;;;;;;;;;;;;;;;;;5132557;27;20026;-47
2023/10/24 14:38:41;;;;;;;;;;;;;;;;;;5129370;27;20061;-49
2023/10/24 14:41:07;;;;;;;;;;;;;;;;;;5132973;27;19931;-47
2023/10/24 14:43:33;;;;;;;;;;;;;;;;;;5129539;27;19981;-50
2023/10/24 14:45:58;;;;;;;;;;;;;;;;;;5130367;27;20013;-46
2023/10/24 14:48:24;;;;;;;;;;;;;;;;;;5135143;27;19931;-50
2023/10/24 14:50:49;;;;;;;;;;;;;;;;;;5129600;27;20371;-50
2023/10/24 14:53:16;;;;;;;;;;;;;;;;;;5127445;27;19934;-51
2023/10/24 14:55:41;;;;;;;;;;;;;;;;;;5127798;27;20027;-49
2023/10/24 14:58:07;;;;;;;;;;;;;;;;;;5130650;27;19931;-50
2023/10/24 15:00:32;;;;;;;;;;;;;;;;;;5130550;27;19931;-51
2023/10/24 15:03:01;;;;;;;;;;;;;;;;;;5125964;27;19926;-49
2023/10/24 15:05:27;;;;;;;;;;;;;;;;;;5128088;27;19931;-48
2023/10/24 15:07:52;;;;;;;;;;;;;;;;;;5123946;27;20023;-50
2023/10/24 15:10:18;;;;;;;;;;;;;;;;;;5126316;27;19931;-47
2023/10/24 15:12:43;;;;;;;;;;;;;;;;;;5124330;27;20033;-49
2023/10/24 15:15:09;;;;;;;;;;;;;;;;;;5121048;27;19927;-50
2023/10/24 15:17:34;;;;;;;;;;;;;;;;;;5129145;27;20017;-46
2023/10/24 15:20:00;;;;;;;;;;;;;;;;;;5129802;27;19941;-47
2023/10/24 15:22:25;;;;;;;;;;;;;;;;;;5129078;27;19992;-49
2023/10/24 15:24:51;;;;;;;;;;;;;;;;;;5130730;27;20077;-50
2023/10/24 15:27:17;;;;;;;;;;;;;;;;;;5129380;27;19931;-51
2023/10/24 15:29:43;;;;;;;;;;;;;;;;;;5127811;27;20478;-51
2023/10/24 15:32:08;;;;;;;;;;;;;;;;;;5130181;27;20363;-49
2023/10/24 15:34:34;;;;;;;;;;;;;;;;;;5129986;27;20721;-51
2023/10/24 15:36:59;;;;;;;;;;;;;;;;;;5127285;27;20022;-49
2023/10/24 15:39:25;;;;;;;;;;;;;;;;;;5126201;27;19931;-50
2023/10/24 15:41:50;;;;;;;;;;;;;;;;;;5128972;27;21101;-49
2023/10/24 15:44:16;;;;;;;;;;;;;;;;;;5130678;27;19992;-50
2023/10/24 15:46:44;;;;;;;;;;;;;;;;;;5130474;27;19927;-50
2023/10/24 15:49:09;;;;;;;;;;;;;;;;;;5129257;27;19927;-50
2023/10/24 15:51:35;;;;;;;;;;;;;;;;;;5130409;27;20003;-45
2023/10/24 15:54:00;;;;;;;;;;;;;;;;;;5131498;27;19938;-46
2023/10/24 15:56:26;;;;;;;;;;;;;;;;;;5131870;27;19962;-46
2023/10/24 15:58:51;;;;;;;;;;;;;;;;;;5128924;27;20072;-43
2023/10/24 16:01:17;;;;;;;;;;;;;;;;;;5128796;27;19927;-46
2023/10/24 16:03:42;;;;;;;;;;;;;;;;;;5125421;27;19931;-46
2023/10/24 16:06:08;;;;;;;;;;;;;;;;;;5128941;27;19932;-45
2023/10/24 16:08:33;;;;;;;;;;;;;;;;;;5131243;27;19931;-44
2023/10/24 16:10:59;;;;;;;;;;;;;;;;;;5129611;27;19931;-47
2023/10/24 16:13:24;;;;;;;;;;;;;;;;;;5127633;27;20286;-45
2023/10/24 16:15:50;;;;;;;;;;;;;;;;;;5131255;27;19957;-44
2023/10/24 16:18:15;;;;;;;;;;;;;;;;;;5130908;27;19927;-44
2023/10/24 16:20:41;;;;;;;;;;;;;;;;;;5131152;27;19923;-43
2023/10/24 16:23:06;;;;;;;;;;;;;;;;;;5129492;27;19938;-44
2023/10/24 16:25:32;;;;;;;;;;;;;;;;;;5131821;27;19931;-45
2023/10/24 16:27:58;;;;;;;;;;;;;;;;;;5131414;27;19938;-44
2023/10/24 16:30:23;;;;;;;;;;;;;;;;;;5131788;27;19931;-45
2023/10/24 16:32:48;;;;;;;;;;;;;;;;;;5131713;27;19927;-44
2023/10/24 16:35:14;;;;;;;;;;;;;;;;;;5128322;27;20066;-45